Time;durP1;ratioP1;P1;durP2;ratioP2;P2;SDS_P1;SDS_P2;PMS_P1;PMS_P2;Temp;Humidity;BMP_temperature;BMP_pressure;BME280_temperature;BME280_humidity;BME280_pressure;Samples;Min_cycle;Max_cycle;Signal;HPM_P1;HPM_P2
2022/06/03 00:01:34;;;;;;;2.92;1.58;;;17.20;71.80;;;;;;4979933;28;20465;-82
2022/06/03 00:04:00;;;;;;;4.47;1.60;;;;;;;;;;4992629;28;20038;-82
2022/06/03 00:06:36;;;;;;;2.80;1.38;;;17.20;71.50;;;;;;4971127;28;20065;-83
2022/06/03 00:09:42;;;;;;;3.95;1.52;;;17.10;71.60;;;;;;4998435;28;20023;-83
2022/06/03 00:12:11;;;;;;;2.60;1.50;;;;;;;;;;4997014;28;20052;-82
2022/06/03 00:14:37;;;;;;;4.38;1.60;;;;;;;;;;4982147;28;20030;-82
2022/06/03 00:17:50;;;;;;;2.55;1.40;;;17.10;71.40;;;;;;4982714;28;20022;-82
2022/06/03 00:21:07;;;;;;;3.60;1.50;;;17.10;71.40;;;;;;4993120;28;20022;-80
2022/06/03 00:24:23;;;;;;;2.42;1.55;;;17.90;72.30;;;;;;4981119;28;20056;-82
2022/06/03 00:27:17;;;;;;;1.88;1.30;;;17.10;71.30;;;;;;4918973;29;20046;-82
2022/06/03 00:30:11;;;;;;;2.83;1.55;;;17.00;71.40;;;;;;4899700;29;20036;-81
2022/06/03 00:33:12;;;;;;;2.08;1.40;;;17.00;71.50;;;;;;4994010;28;20045;-80
2022/06/03 00:36:10;;;;;;;6.10;2.80;;;17.00;71.80;;;;;;5001585;28;20125;-80
2022/06/03 00:39:07;;;;;;;2.88;1.48;;;17.90;72.80;;;;;;5003047;28;20078;-82
2022/06/03 00:41:52;;;;;;;2.50;1.50;;;17.20;72.30;;;;;;4994548;28;21092;-83
2022/06/03 00:44:57;;;;;;;4.05;1.60;;;16.80;74.90;;;;;;5011419;28;20046;-83
2022/06/03 00:48:11;;;;;;;2.75;1.60;;;16.90;72.00;;;;;;4996220;28;20014;-83
2022/06/03 00:51:17;;;;;;;2.58;1.55;;;16.00;71.90;;;;;;5013268;28;20028;-83
2022/06/03 00:54:01;;;;;;;2.35;1.60;;;16.80;72.50;;;;;;5014774;28;20015;-83
2022/06/03 00:56:48;;;;;;;5.72;2.05;;;19.10;73.90;;;;;;5016952;28;20013;-83
2022/06/03 00:59:15;;;;;;;4.55;2.92;;;;;;;;;;5017208;28;20034;-83
2022/06/03 01:01:49;;;;;;;3.53;1.50;;;16.70;72.70;;;;;;5016226;28;20050;-84
2022/06/03 01:04:36;;;;;;;3.45;1.35;;;16.70;72.80;;;;;;4999804;28;20066;-84
2022/06/03 01:07:42;;;;;;;2.70;1.50;;;16.80;72.60;;;;;;5000088;28;20033;-83
2022/06/03 01:10:44;;;;;;;7.03;2.20;;;16.90;72.30;;;;;;4995925;28;20082;-85
2022/06/03 01:13:57;;;;;;;1.80;1.30;;;16.80;72.70;;;;;;5001088;28;20010;-82
2022/06/03 01:16:50;;;;;;;2.30;1.33;;;16.60;72.70;;;;;;4991832;23;20043;-83
2022/06/03 01:19:21;;;;;;;2.28;1.40;;;;;;;;;;5013660;28;20047;-83
2022/06/03 01:22:05;;;;;;;10.27;5.05;;;16.70;73.10;;;;;;5023579;28;20010;-82
2022/06/03 01:25:02;;;;;;;2.22;1.42;;;16.80;73.10;;;;;;5001907;28;20101;-83
2022/06/03 01:27:56;;;;;;;11.38;4.00;;;16.60;73.30;;;;;;5014632;28;20046;-84
2022/06/03 01:30:56;;;;;;;4.13;1.55;;;16.50;73.70;;;;;;4996330;28;20106;-85
2022/06/03 01:33:39;;;;;;;3.35;1.35;;;16.40;74.20;;;;;;5007989;28;20043;-85
2022/06/03 01:36:05;;;;;;;3.50;1.50;;;;;;;;;;5012921;28;20018;-86
2022/06/03 01:38:38;;;;;;;2.95;1.20;;;16.50;73.90;;;;;;5001941;28;20070;-84
2022/06/03 01:41:21;;;;;;;17.65;7.13;;;16.50;74.10;;;;;;5014614;28;20011;-83
2022/06/03 01:44:08;;;;;;;4.95;1.45;;;16.40;74.40;;;;;;5048957;22;20052;-81
2022/06/03 01:47:07;;;;;;;2.80;1.40;;;16.30;74.70;;;;;;4999792;28;20037;-81
2022/06/03 01:49:59;;;;;;;5.32;2.22;;;15.30;74.60;;;;;;4997832;28;20457;-81
2022/06/03 01:52:42;;;;;;;2.58;1.42;;;16.20;75.40;;;;;;4993479;28;20053;-82
2022/06/03 01:55:27;;;;;;;10.50;3.45;;;16.10;75.60;;;;;;4994334;28;20030;-81
2022/06/03 01:58:05;;;;;;;7.68;2.72;;;16.20;75.70;;;;;;4992771;28;20113;-81
2022/06/03 02:00:44;;;;;;;4.65;1.55;;;16.20;75.70;;;;;;5004119;28;20090;-81
2022/06/03 02:03:18;;;;;;;2.33;1.50;;;16.10;76.30;;;;;;4999466;28;20384;-82
2022/06/03 02:06:21;;;;;;;2.50;1.33;;;16.10;75.90;;;;;;5013177;28;20034;-81
2022/06/03 02:08:56;;;;;;;2.65;1.40;;;16.30;76.40;;;;;;5013497;28;20037;-82
2022/06/03 02:11:34;;;;;;;3.72;1.30;;;16.00;76.40;;;;;;5017672;28;20032;-81
2022/06/03 02:14:29;;;;;;;3.50;1.50;;;16.10;76.10;;;;;;5016511;28;20082;-82
2022/06/03 02:17:29;;;;;;;2.20;1.40;;;16.10;76.60;;;;;;5009908;28;20015;-80
2022/06/03 02:20:08;;;;;;;2.58;1.50;;;16.20;77.10;;;;;;5011362;28;20076;-82
2022/06/03 02:22:52;;;;;;;2.40;1.40;;;15.90;76.90;;;;;;5009877;28;20033;-81
2022/06/03 02:25:37;;;;;;;4.15;1.50;;;15.80;77.20;;;;;;5012540;28;20037;-82
2022/06/03 02:28:16;;;;;;;1.98;1.33;;;15.80;77.60;;;;;;5003373;28;20049;-82
2022/06/03 02:31:30;;;;;;;3.07;1.37;;;15.80;77.50;;;;;;5011562;28;20019;-82
2022/06/03 02:34:53;;;;;;;2.38;1.50;;;15.80;77.80;;;;;;4976875;28;20290;-81
2022/06/03 02:37:43;;;;;;;4.95;1.40;;;15.80;77.70;;;;;;4918733;29;20090;-82
2022/06/03 02:40:35;;;;;;;;;;;15.90;78.10;;;;;;4996002;28;20018;-82
2022/06/03 02:43:27;;;;;;;3.60;1.67;;;15.60;78.10;;;;;;4989118;28;19908;-82
2022/06/03 02:46:33;;;;;;;2.90;1.73;;;15.70;78.70;;;;;;5000048;28;20093;-85
2022/06/03 02:49:12;;;;;;;3.97;1.70;;;15.60;78.70;;;;;;4999000;28;20002;-81
2022/06/03 02:51:40;;;;;;;2.30;1.40;;;;;;;;;;5001114;28;20321;-86
2022/06/03 02:54:25;;;;;;;3.60;1.40;;;15.60;79.30;;;;;;5011453;28;20107;-80
2022/06/03 02:57:30;;;;;;;2.40;1.10;;;15.30;80.30;;;;;;5016436;28;20030;-81
2022/06/03 03:00:20;;;;;;;2.05;1.17;;;15.60;80.30;;;;;;4988708;28;20049;-80
2022/06/03 03:03:30;;;;;;;3.80;1.50;;;15.60;79.00;;;;;;5013359;28;20397;-79
2022/06/03 03:06:11;;;;;;;2.95;1.30;;;15.60;79.20;;;;;;4988588;28;20033;-79
2022/06/03 03:09:00;;;;;;;3.30;1.33;;;15.50;79.20;;;;;;4995251;28;20260;-78
2022/06/03 03:12:07;;;;;;;2.92;1.40;;;15.50;79.40;;;;;;4993936;28;20089;-79
2022/06/03 03:15:32;;;;;;;3.47;1.60;;;15.40;79.70;;;;;;4987861;28;20042;-80
2022/06/03 03:18:23;;;;;;;2.22;1.30;;;15.50;79.40;;;;;;4998281;28;20065;-79
2022/06/03 03:21:11;;;;;;;2.80;1.23;;;15.40;79.70;;;;;;4991917;28;20103;-80
2022/06/03 03:24:16;;;;;;;2.72;1.52;;;15.40;79.60;;;;;;4998397;28;20029;-79
2022/06/03 03:27:15;;;;;;;2.53;1.40;;;15.40;79.70;;;;;;5017300;28;20042;-87
2022/06/03 03:30:04;;;;;;;2.00;1.20;;;15.50;79.60;;;;;;5001500;28;20054;-83
2022/06/03 03:33:15;;;;;;;1.80;1.20;;;15.60;79.30;;;;;;5010610;28;20061;-82
2022/06/03 03:36:26;;;;;;;1.55;1.20;;;15.60;79.50;;;;;;4992643;28;20022;-83
2022/06/03 03:39:31;;;;;;;1.90;1.17;;;15.50;79.40;;;;;;5010169;28;20034;-79
2022/06/03 03:42:38;;;;;;;1.80;1.20;;;15.60;79.20;;;;;;4987915;28;20484;-79
2022/06/03 03:45:42;;;;;;;1.83;1.38;;;14.70;79.00;;;;;;4993799;28;20042;-83
2022/06/03 03:48:19;;;;;;;2.17;1.42;;;15.50;79.40;;;;;;4996706;28;20035;-80
2022/06/03 03:50:49;;;;;;;1.42;1.13;;;;;;;;;;5147114;23;20058;-80
2022/06/03 03:53:29;;;;;;;2.88;1.30;;;15.50;79.70;;;;;;4994221;28;20057;-81
2022/06/03 03:56:18;;;;;;;4.25;1.58;;;15.60;79.90;;;;;;5007642;28;20028;-81
2022/06/03 03:58:44;;;;;;;2.33;1.50;;;;;;;;;;5012258;28;20026;-80
2022/06/03 04:01:10;;;;;;;2.63;1.70;;;;;;;;;;5011945;28;20029;-79
2022/06/03 04:04:16;;;;;;;2.17;1.50;;;15.60;79.90;;;;;;5015729;28;20065;-80
2022/06/03 04:07:04;;;;;;;2.33;1.13;;;15.50;79.60;;;;;;4993503;28;20022;-80
2022/06/03 04:10:03;;;;;;;3.25;1.30;;;15.70;79.50;;;;;;4996957;28;20097;-82
2022/06/03 04:12:47;;;;;;;2.22;1.50;;;13.60;78.60;;;;;;5016076;28;20127;-81
2022/06/03 04:15:13;;;;;;;3.20;1.60;;;;;;;;;;5020959;28;20030;-81
2022/06/03 04:17:45;;;;;;;3.10;1.35;;;15.90;78.80;;;;;;5019910;28;20027;-81
2022/06/03 04:20:36;;;;;;;2.55;1.50;;;15.80;79.10;;;;;;5020123;28;20428;-81
2022/06/03 04:23:23;;;;;;;2.67;1.60;;;15.70;79.60;;;;;;5009405;28;20041;-81
2022/06/03 04:26:19;;;;;;;2.58;1.40;;;15.70;80.10;;;;;;5025946;28;20090;-80
2022/06/03 04:29:06;;;;;;;1.77;1.30;;;15.60;80.30;;;;;;5017430;28;20108;-80
2022/06/03 04:32:09;;;;;;;2.55;1.60;;;15.60;80.20;;;;;;5013282;28;20208;-80
2022/06/03 04:35:03;;;;;;;2.50;1.30;;;15.50;80.60;;;;;;5025834;28;20064;-78
2022/06/03 04:37:52;;;;;;;3.53;1.40;;;15.60;80.10;;;;;;5009399;28;20030;-80
2022/06/03 04:40:49;;;;;;;3.67;1.60;;;15.60;80.40;;;;;;5012179;28;20028;-80
2022/06/03 04:43:15;;;;;;;4.05;1.40;;;;;;;;;;5028200;28;20026;-79
2022/06/03 04:46:17;;;;;;;3.35;1.80;;;15.60;80.40;;;;;;5029877;28;20022;-81
2022/06/03 04:49:09;;;;;;;3.58;1.50;;;15.60;80.70;;;;;;5018419;28;20038;-81
2022/06/03 04:51:50;;;;;;;3.83;1.45;;;15.60;81.00;;;;;;4997868;28;20061;-82
2022/06/03 04:54:44;;;;;;;4.60;1.85;;;15.60;80.70;;;;;;5020214;28;20026;-81
2022/06/03 04:57:33;;;;;;;1.70;1.33;;;15.70;81.20;;;;;;5013046;28;20097;-82
2022/06/03 05:00:25;;;;;;;3.00;1.60;;;15.70;80.90;;;;;;5019219;28;20018;-82
2022/06/03 05:03:38;;;;;;;2.15;1.55;;;15.70;81.00;;;;;;5020412;28;20041;-82
2022/06/03 05:06:22;;;;;;;2.42;1.50;;;15.90;80.60;;;;;;4996195;28;20053;-82
2022/06/03 05:09:20;;;;;;;3.40;1.70;;;15.80;80.50;;;;;;4997260;28;20120;-80
2022/06/03 05:12:23;;;;;;;4.03;1.67;;;16.00;81.80;;;;;;4987026;28;20113;-82
2022/06/03 05:15:22;;;;;;;4.18;1.85;;;16.20;80.00;;;;;;5018751;28;20030;-82
2022/06/03 05:18:31;;;;;;;2.97;1.33;;;15.60;80.40;;;;;;4997136;28;20031;-83
2022/06/03 05:21:33;;;;;;;4.18;1.45;;;17.20;77.80;;;;;;5015099;28;20049;-82
2022/06/03 05:24:37;;;;;;;3.45;1.55;;;17.30;77.70;;;;;;5017121;28;20044;-83
2022/06/03 05:27:31;;;;;;;4.00;1.63;;;18.00;74.80;;;;;;5018694;28;20036;-81
2022/06/03 05:30:22;;;;;;;3.80;1.58;;;18.60;73.00;;;;;;4998276;28;20030;-82
2022/06/03 05:33:34;;;;;;;3.72;1.40;;;18.20;73.20;;;;;;5014605;28;20040;-83
2022/06/03 05:36:18;;;;;;;3.45;1.67;;;19.10;72.30;;;;;;5009184;28;20041;-82
2022/06/03 05:38:44;;;;;;;1.75;1.48;;;;;;;;;;5018636;28;20022;-81
2022/06/03 05:44:50;;;;;;;2.05;1.15;;;19.60;71.60;;;;;;5021853;28;20033;-82
2022/06/03 05:47:23;;;;;;;2.42;1.10;;;19.50;71.40;;;;;;5016293;28;20126;-81
2022/06/03 05:49:49;;;;;;;3.38;1.50;;;;;;;;;;5017142;28;20058;-82
2022/06/03 05:52:44;;;;;;;3.42;1.80;;;19.40;71.10;;;;;;5000325;28;20036;-83
2022/06/03 05:55:19;;;;;;;4.05;1.65;;;19.20;74.00;;;;;;5010497;28;20180;-81
2022/06/03 05:58:06;;;;;;;2.83;1.50;;;19.10;72.20;;;;;;5013468;28;20044;-82
2022/06/03 06:00:51;;;;;;;1.90;1.15;;;19.70;72.20;;;;;;5013493;28;20057;-83
2022/06/03 06:03:21;;;;;;;3.28;1.30;;;20.50;69.00;;;;;;4995442;28;20398;-82
2022/06/03 06:05:46;;;;;;;;;;;20.40;72.30;;;;;;5013129;28;20026;-83
2022/06/03 06:08:18;;;;;;;2.55;1.35;;;21.50;66.10;;;;;;4998978;28;19918;-80
2022/06/03 06:11:21;;;;;;;3.42;1.45;;;21.50;66.60;;;;;;4991511;28;20037;-82
2022/06/03 06:14:13;;;;;;;3.45;1.20;;;21.60;65.80;;;;;;5016045;28;20026;-81
2022/06/03 06:16:41;;;;;;;5.05;1.20;;;21.50;65.90;;;;;;5012884;28;20021;-83
2022/06/03 06:19:15;;;;;;;2.25;1.10;;;21.30;66.40;;;;;;4998071;28;20120;-81
2022/06/03 06:21:41;;;;;;;2.47;1.20;;;;;;;;;;5015891;28;20034;-82
2022/06/03 06:24:14;;;;;;;6.32;1.40;;;21.20;66.90;;;;;;4998374;28;20167;-83
2022/06/03 06:26:40;;;;;;;3.10;1.30;;;;;;;;;;5015130;28;20219;-82
2022/06/03 06:29:27;;;;;;;4.40;1.50;;;20.80;67.60;;;;;;5015862;28;20022;-83
2022/06/03 06:32:29;;;;;;;1.83;1.38;;;20.70;68.40;;;;;;5015036;28;20022;-81
2022/06/03 06:35:01;;;;;;;3.50;1.90;;;20.30;68.70;;;;;;4997549;28;20026;-83
2022/06/03 06:37:35;;;;;;;1.80;1.20;;;20.30;69.60;;;;;;4999324;28;20402;-82
2022/06/03 06:40:32;;;;;;;3.10;1.40;;;19.70;70.70;;;;;;5016422;28;20018;-82
2022/06/03 06:43:35;;;;;;;2.88;1.40;;;19.70;71.20;;;;;;5022990;28;20038;-81
2022/06/03 06:46:25;;;;;;;4.15;1.25;;;19.80;71.20;;;;;;5031688;28;20030;-83
2022/06/03 06:49:31;;;;;;;2.42;1.40;;;19.70;71.30;;;;;;5024006;28;20057;-81
2022/06/03 06:52:15;;;;;;;2.35;1.40;;;19.60;71.50;;;;;;5021653;28;20034;-82
2022/06/03 06:54:41;;;;;;;6.63;1.42;;;;;;;;;;5021577;28;20029;-81
2022/06/03 06:57:19;;;;;;;2.20;1.30;;;19.40;72.40;;;;;;5020437;28;20022;-81
2022/06/03 06:59:53;;;;;;;3.17;1.30;;;19.40;72.40;;;;;;5018582;28;20033;-82
2022/06/03 07:02:26;;;;;;;3.05;1.20;;;19.60;72.30;;;;;;5018576;28;20053;-82
2022/06/03 07:05:05;;;;;;;3.90;1.55;;;19.60;72.40;;;;;;5012306;28;20038;-81
2022/06/03 07:07:57;;;;;;;2.28;1.35;;;19.70;72.40;;;;;;4996634;28;20022;-81
2022/06/03 07:10:28;;;;;;;3.53;1.40;;;19.70;72.60;;;;;;4999609;28;20034;-79
2022/06/03 07:13:06;;;;;;;3.20;1.42;;;19.90;72.40;;;;;;5005478;28;20048;-81
2022/06/03 07:15:34;;;;;;;2.13;1.40;;;;;;;;;;5001153;28;20022;-83
2022/06/03 07:21:04;;;;;;;3.22;1.33;;;;;;;;;;5019016;28;20041;-82
2022/06/03 07:23:51;;;;;;;4.00;1.63;;;20.10;72.30;;;;;;5002371;28;20036;-83
2022/06/03 07:26:29;;;;;;;2.28;1.33;;;20.10;72.40;;;;;;5001043;28;20034;-83
2022/06/03 07:29:12;;;;;;;5.25;1.77;;;20.20;72.60;;;;;;5021486;28;20085;-83
2022/06/03 07:32:03;;;;;;;2.13;1.52;;;20.30;72.90;;;;;;5021363;28;20026;-81
2022/06/03 07:34:52;;;;;;;5.70;1.60;;;20.30;72.40;;;;;;4997326;28;20608;-83
2022/06/03 07:37:33;;;;;;;3.22;1.42;;;20.40;72.50;;;;;;5018273;28;20026;-82
2022/06/03 07:40:11;;;;;;;11.43;7.18;;;20.40;72.00;;;;;;5003156;28;20034;-81
2022/06/03 07:42:53;;;;;;;2.15;1.40;;;20.50;72.20;;;;;;5001492;28;20022;-82
2022/06/03 07:45:56;;;;;;;4.28;1.30;;;20.50;72.70;;;;;;5018495;28;20098;-83
2022/06/03 07:48:25;;;;;;;4.15;1.50;;;20.50;72.80;;;;;;4987288;28;20037;-81
2022/06/03 07:50:51;;;;;;;6.85;1.50;;;;;;;;;;5010447;28;20026;-82
2022/06/03 07:53:22;;;;;;;1.92;1.30;;;20.60;73.10;;;;;;4998600;28;20029;-82
2022/06/03 07:55:57;;;;;;;4.78;1.60;;;20.60;73.00;;;;;;4997930;28;20037;-81
2022/06/03 07:58:51;;;;;;;5.30;1.48;;;20.70;72.80;;;;;;5009592;28;20030;-80
2022/06/03 08:01:22;;;;;;;2.25;1.38;;;20.70;73.10;;;;;;4984834;28;20038;-81
2022/06/03 08:03:48;;;;;;;4.85;1.70;;;;;;;;;;5002784;28;20053;-81
2022/06/03 08:06:14;;;;;;;3.80;1.67;;;;;;;;;;5000787;28;20040;-82
2022/06/03 08:11:46;;;;;;;2.85;2.00;;;20.80;73.80;;;;;;4944702;29;20059;-82
2022/06/03 08:14:26;;;;;;;2.58;1.60;;;21.00;73.70;;;;;;4987826;28;20501;-82
2022/06/03 08:16:52;;;;;;;3.38;1.33;;;;;;;;;;5013531;28;20080;-82
2022/06/03 08:19:23;;;;;;;2.00;1.45;;;21.40;72.90;;;;;;4993740;28;20030;-82
2022/06/03 08:21:56;;;;;;;4.35;1.50;;;21.60;73.00;;;;;;5006229;28;20045;-82
2022/06/03 08:24:25;;;;;;;4.95;1.50;;;21.70;72.90;;;;;;4998605;28;20026;-81
2022/06/03 08:26:57;;;;;;;2.65;1.70;;;21.90;72.70;;;;;;5000339;28;20026;-82
2022/06/03 08:29:36;;;;;;;2.47;1.50;;;22.10;72.50;;;;;;5004540;28;20030;-83
2022/06/03 08:32:08;;;;;;;2.58;1.40;;;22.40;72.50;;;;;;5004329;28;20093;-83
2022/06/03 08:34:43;;;;;;;2.35;1.52;;;22.70;74.40;;;;;;5001822;28;20517;-81
2022/06/03 08:37:15;;;;;;;4.78;1.60;;;22.90;70.90;;;;;;5002521;28;20045;-82
2022/06/03 08:39:46;;;;;;;9.15;6.18;;;23.00;72.20;;;;;;5002130;28;20049;-81
2022/06/03 08:42:28;;;;;;;3.45;1.60;;;23.20;71.20;;;;;;5004120;28;20026;-81
2022/06/03 08:45:05;;;;;;;2.75;1.63;;;23.80;69.80;;;;;;4998249;28;20034;-82
2022/06/03 08:47:41;;;;;;;1.80;1.35;;;24.30;73.10;;;;;;5012913;28;20096;-81
2022/06/03 08:50:25;;;;;;;2.50;1.35;;;24.00;71.10;;;;;;4994690;28;20038;-81
2022/06/03 08:53:07;;;;;;;3.97;1.50;;;23.70;70.50;;;;;;5019408;28;20057;-82
2022/06/03 08:55:49;;;;;;;5.32;1.90;;;24.30;70.00;;;;;;5020594;28;20049;-81
2022/06/03 08:58:15;;;;;;;3.70;1.95;;;;;;;;;;5001667;28;20025;-82
2022/06/03 09:01:30;;;;;;;3.10;1.48;;;23.90;71.70;;;;;;5017058;28;20033;-82
2022/06/03 09:04:13;;;;;;;3.72;1.80;;;24.10;71.20;;;;;;5005513;28;20413;-82
2022/06/03 09:06:41;;;;;;;5.65;1.83;;;;;;;;;;5015064;28;20034;-81
2022/06/03 09:09:16;;;;;;;4.38;1.70;;;24.20;71.60;;;;;;5002398;28;20120;-81
2022/06/03 09:11:44;;;;;;;3.30;1.77;;;24.20;71.90;;;;;;5022058;28;20026;-81
2022/06/03 09:14:18;;;;;;;2.75;1.60;;;26.80;76.90;;;;;;5003918;28;20117;-82
2022/06/03 09:16:44;;;;;;;5.18;1.80;;;;;;;;;;5007445;28;20655;-82
2022/06/03 09:19:40;;;;;;;2.33;1.73;;;23.90;72.90;;;;;;5011946;28;20022;-80
2022/06/03 09:22:13;;;;;;;3.65;2.00;;;23.80;73.60;;;;;;5002969;28;20250;-82
2022/06/03 09:24:43;;;;;;;5.55;3.00;;;23.80;74.30;;;;;;5026568;28;20029;-81
2022/06/03 09:27:13;;;;;;;2.85;1.88;;;23.60;75.60;;;;;;5011132;28;20030;-82
2022/06/03 09:29:45;;;;;;;7.35;2.08;;;24.70;77.10;;;;;;5003758;28;20038;-82
2022/06/03 09:32:12;;;;;;;4.03;1.80;;;23.80;74.70;;;;;;5031713;28;20022;-84
2022/06/03 09:34:48;;;;;;;3.88;1.90;;;23.80;74.40;;;;;;5019307;28;20029;-82
2022/06/03 09:42:29;;;;;;;3.83;2.38;;;23.90;75.30;;;;;;5119551;22;20085;-88
2022/06/03 09:44:59;;;;;;;4.65;2.25;;;24.00;74.80;;;;;;5014960;28;20034;-87
2022/06/03 09:47:25;;;;;;;4.63;2.47;;;24.00;75.10;;;;;;5021604;28;20439;-88
2022/06/03 09:49:55;;;;;;;3.55;2.17;;;24.00;74.50;;;;;;5009348;28;20114;-86
2022/06/03 09:52:27;;;;;;;3.40;2.30;;;24.00;74.90;;;;;;5016464;28;20021;-85
2022/06/03 09:57:39;;;;;;;3.33;2.00;;;24.00;75.20;;;;;;4995249;28;20097;-85
2022/06/03 10:00:08;;;;;;;2.47;1.95;;;24.10;75.20;;;;;;5002295;28;20061;-84
2022/06/03 10:02:34;;;;;;;5.45;2.05;;;24.10;75.10;;;;;;5005880;28;20117;-85
2022/06/03 10:05:03;;;;;;;3.30;2.10;;;24.40;74.60;;;;;;4991105;28;20015;-84
2022/06/03 10:07:30;;;;;;;3.92;2.22;;;24.40;75.00;;;;;;5005283;28;20037;-84
2022/06/03 10:12:50;;;;;;;6.97;2.63;;;23.50;74.50;;;;;;5024151;28;20038;-82
2022/06/03 10:15:40;;;;;;;2.97;1.90;;;25.10;73.30;;;;;;5007850;28;20034;-84
2022/06/03 10:18:33;;;;;;;5.20;2.05;;;25.00;73.70;;;;;;5012777;28;20266;-84
2022/06/03 10:21:05;;;;;;;3.97;2.00;;;25.20;73.90;;;;;;5018217;28;20031;-83
2022/06/03 10:23:36;;;;;;;4.43;2.13;;;25.30;73.60;;;;;;5004482;28;20022;-83
2022/06/03 10:26:04;;;;;;;4.00;1.95;;;25.40;73.50;;;;;;5024263;28;20026;-82
2022/06/03 10:28:38;;;;;;;4.72;2.40;;;25.30;73.80;;;;;;5022963;28;20017;-84
2022/06/03 10:31:07;;;;;;;4.10;2.25;;;25.40;73.60;;;;;;5014257;28;20101;-82
2022/06/03 10:33:33;;;;;;;2.97;1.88;;;25.30;73.90;;;;;;5003819;28;20033;-81
2022/06/03 10:36:01;;;;;;;3.20;2.08;;;25.10;74.70;;;;;;5003279;28;20026;-82
2022/06/03 10:38:30;;;;;;;3.75;2.10;;;25.10;75.00;;;;;;4993913;28;20038;-84
2022/06/03 10:40:56;;;;;;;2.83;2.17;;;24.70;74.90;;;;;;5010904;28;20033;-82
2022/06/03 10:43:30;;;;;;;4.45;2.22;;;25.20;75.70;;;;;;5001929;28;20030;-83
2022/06/03 10:46:17;;;;;;;2.95;2.25;;;25.30;75.50;;;;;;4998177;28;20317;-82
2022/06/03 10:48:45;;;;;;;2.63;2.40;;;25.20;76.40;;;;;;5014484;28;20032;-85
2022/06/03 10:51:18;;;;;;;5.32;2.50;;;25.20;75.70;;;;;;5006636;28;20045;-83
2022/06/03 11:02:37;;;;;;;4.00;2.72;;;25.70;75.00;;;;;;5006688;28;20045;-84
2022/06/03 11:05:13;;;;;;;5.47;2.72;;;25.90;75.60;;;;;;5002471;28;20033;-84
2022/06/03 11:07:39;;;;;;;6.65;2.28;;;26.00;75.20;;;;;;5019489;28;20029;-83
2022/06/03 11:10:15;;;;;;;4.82;2.40;;;25.80;75.20;;;;;;5001123;28;20045;-84
2022/06/03 11:12:43;;;;;;;2.58;2.00;;;25.80;75.30;;;;;;4996297;28;20034;-84
2022/06/03 11:15:36;;;;;;;4.60;2.28;;;25.90;75.60;;;;;;5011242;28;20018;-83
2022/06/03 11:18:29;;;;;;;4.47;2.42;;;25.90;75.80;;;;;;5014768;28;20030;-85
2022/06/03 11:20:56;;;;;;;6.90;2.35;;;25.50;76.30;;;;;;4995134;28;20047;-86
2022/06/03 11:23:22;;;;;;;4.07;2.30;;;25.40;76.80;;;;;;5005506;28;20018;-87
2022/06/03 11:25:54;;;;;;;3.53;2.33;;;25.50;77.10;;;;;;5005638;28;20022;-84
2022/06/03 11:28:29;;;;;;;6.57;2.50;;;25.50;77.00;;;;;;5020900;28;20026;-84
2022/06/03 11:31:10;;;;;;;3.60;2.33;;;25.50;77.10;;;;;;5009377;28;20030;-86
2022/06/03 11:34:24;;;;;;;5.35;2.40;;;25.30;77.20;;;;;;5005007;28;20026;-85
2022/06/03 11:36:56;;;;;;;3.33;2.55;;;25.20;76.80;;;;;;4941245;28;20059;-84
2022/06/03 11:39:30;;;;;;;5.07;2.53;;;25.30;77.70;;;;;;5024926;28;20033;-84
2022/06/03 11:42:06;;;;;;;6.22;4.35;;;25.10;77.00;;;;;;5023488;28;20045;-85
2022/06/03 11:44:49;;;;;;;4.35;2.58;;;25.10;77.50;;;;;;4995967;28;20018;-84
2022/06/03 11:47:21;;;;;;;3.95;2.50;;;25.10;77.40;;;;;;5020845;28;20018;-84
2022/06/03 11:49:47;;;;;;;3.13;2.40;;;;;;;;;;5020787;28;20499;-84
2022/06/03 11:52:13;;;;;;;3.70;2.13;;;25.00;77.30;;;;;;5022530;28;20097;-84
2022/06/03 11:54:40;;;;;;;6.35;2.83;;;24.90;78.40;;;;;;5016292;28;20033;-84
2022/06/03 11:57:07;;;;;;;4.50;2.70;;;24.80;78.90;;;;;;5005800;28;20053;-83
2022/06/03 11:59:47;;;;;;;3.63;2.38;;;24.70;79.30;;;;;;5006967;28;20026;-83
2022/06/03 12:02:16;;;;;;;4.45;2.60;;;24.60;78.90;;;;;;5002466;28;20049;-84
2022/06/03 12:04:53;;;;;;;4.03;2.60;;;24.60;79.60;;;;;;5010416;28;20109;-85
2022/06/03 12:07:41;;;;;;;6.45;2.63;;;24.50;80.70;;;;;;5002211;28;20022;-87
2022/06/03 12:10:35;;;;;;;9.32;3.95;;;24.50;81.10;;;;;;5018767;28;20467;-85
2022/06/03 12:13:15;;;;;;;9.00;3.80;;;24.30;82.80;;;;;;5001045;28;20037;-83
2022/06/03 12:15:47;;;;;;;3.78;3.00;;;24.30;83.10;;;;;;4997520;28;20026;-85
2022/06/03 12:18:12;;;;;;;7.20;3.92;;;24.20;83.90;;;;;;5021033;28;20037;-84
2022/06/03 12:20:47;;;;;;;5.97;3.47;;;24.10;82.30;;;;;;4999598;28;20025;-83
2022/06/03 12:23:12;;;;;;;4.65;2.78;;;24.00;82.30;;;;;;5025658;28;20048;-84
2022/06/03 12:25:41;;;;;;;4.47;3.05;;;24.00;83.10;;;;;;5024109;28;20093;-86
2022/06/03 12:28:21;;;;;;;6.10;3.40;;;23.80;87.70;;;;;;5008013;28;20037;-84
2022/06/03 12:31:10;;;;;;;6.30;3.28;;;23.70;88.80;;;;;;5004925;28;20034;-84
2022/06/03 12:33:54;;;;;;;6.07;3.22;;;23.40;89.30;;;;;;5009332;28;20041;-84
2022/06/03 12:36:47;;;;;;;8.43;3.30;;;23.40;89.80;;;;;;4998306;28;20029;-86
2022/06/03 12:39:13;;;;;;;5.30;3.30;;;;;;;;;;5005997;28;20033;-84
2022/06/03 12:41:45;;;;;;;8.60;3.55;;;23.20;90.90;;;;;;5006288;28;20022;-85
2022/06/03 12:44:50;;;;;;;7.22;3.60;;;23.10;92.10;;;;;;5021883;28;20022;-86
2022/06/03 12:47:18;;;;;;;8.10;3.90;;;23.00;91.60;;;;;;5002102;28;20022;-83
2022/06/03 12:49:44;;;;;;;7.65;4.25;;;23.00;91.00;;;;;;4994460;28;20084;-87
2022/06/03 12:52:35;;;;;;;8.30;3.97;;;23.00;91.50;;;;;;4995160;28;20085;-85
2022/06/03 12:55:21;;;;;;;6.30;3.80;;;22.90;94.00;;;;;;5012779;28;20968;-84
2022/06/03 12:57:47;;;;;;;6.38;4.45;;;;;;;;;;5003831;28;20551;-84
2022/06/03 13:00:33;;;;;;;7.28;4.80;;;22.80;95.70;;;;;;5004338;28;20033;-86
2022/06/03 13:03:13;;;;;;;8.23;4.63;;;22.60;97.00;;;;;;5004648;28;20570;-85
2022/06/03 13:05:43;;;;;;;6.38;4.55;;;22.50;98.00;;;;;;5022805;28;20064;-85
2022/06/03 13:08:11;;;;;;;7.28;4.68;;;22.40;98.90;;;;;;5006020;28;20037;-85
2022/06/03 13:11:31;;;;;;;5.22;4.47;;;22.20;99.30;;;;;;5014439;28;20041;-86
2022/06/03 13:13:56;;;;;;;6.70;5.03;;;22.20;99.90;;;;;;4983882;28;20042;-84
2022/06/03 13:16:28;;;;;;;9.43;5.28;;;22.10;99.90;;;;;;4999147;28;20033;-86
2022/06/03 13:19:01;;;;;;;9.98;5.35;;;22.00;99.90;;;;;;4997298;28;20072;-84
2022/06/03 13:21:44;;;;;;;8.32;5.65;;;21.90;99.90;;;;;;4995959;28;20133;-87
2022/06/03 13:24:23;;;;;;;11.00;5.45;;;21.80;99.90;;;;;;5025905;28;20025;-86
2022/06/03 13:27:11;;;;;;;10.07;6.68;;;21.80;99.90;;;;;;5000288;28;20499;-86
2022/06/03 13:29:49;;;;;;;7.25;5.43;;;21.70;99.90;;;;;;4981211;28;20580;-85
2022/06/03 13:32:17;;;;;;;7.95;5.63;;;21.60;99.90;;;;;;4989739;28;20493;-83
2022/06/03 13:34:44;;;;;;;11.40;5.13;;;21.60;99.90;;;;;;4998184;28;20069;-85
2022/06/03 13:37:32;;;;;;;9.13;5.30;;;21.60;99.90;;;;;;4992970;28;20432;-86
2022/06/03 13:39:57;;;;;;;7.35;4.88;;;21.50;99.90;;;;;;4998023;28;20030;-83
2022/06/03 13:43:04;;;;;;;8.00;5.13;;;21.40;99.90;;;;;;4999253;28;20112;-85
2022/06/03 13:45:56;;;;;;;9.77;5.80;;;21.30;99.90;;;;;;5001190;28;20038;-87
2022/06/03 13:48:50;;;;;;;6.25;4.82;;;21.40;99.90;;;;;;5000447;28;20032;-86
2022/06/03 13:51:47;;;;;;;8.95;5.28;;;21.40;99.90;;;;;;4998891;28;20127;-85
2022/06/03 13:54:24;;;;;;;8.27;5.60;;;21.60;99.90;;;;;;5001162;28;20017;-84
2022/06/03 13:57:33;;;;;;;10.40;5.50;;;21.70;99.90;;;;;;4989531;28;20038;-85
2022/06/03 14:00:25;;;;;;;8.75;5.18;;;21.70;99.90;;;;;;4997005;28;20307;-85
2022/06/03 14:03:08;;;;;;;7.25;4.95;;;21.70;99.90;;;;;;4996008;28;20022;-85
2022/06/03 14:05:41;;;;;;;5.80;4.70;;;21.70;99.90;;;;;;5016928;28;20037;-85
2022/06/03 14:08:26;;;;;;;7.45;4.93;;;21.70;99.90;;;;;;5001888;28;20037;-84
2022/06/03 14:11:04;;;;;;;7.25;4.40;;;21.60;99.90;;;;;;4996359;28;20046;-85
2022/06/03 14:14:19;;;;;;;7.72;4.43;;;21.50;99.90;;;;;;5000028;28;20030;-87
2022/06/03 14:17:10;;;;;;;7.57;4.68;;;21.30;99.90;;;;;;4987187;28;20049;-86
2022/06/03 14:20:13;;;;;;;8.55;5.30;;;21.30;99.90;;;;;;5000277;28;20112;-85
2022/06/03 14:23:11;;;;;;;6.38;4.60;;;21.20;99.90;;;;;;4993124;28;20065;-85
2022/06/03 14:25:45;;;;;;;6.80;4.50;;;21.10;99.90;;;;;;5012048;28;20417;-83
2022/06/03 14:28:32;;;;;;;8.02;4.43;;;21.10;99.90;;;;;;4998442;28;20049;-86
2022/06/03 14:31:41;;;;;;;6.53;3.85;;;21.10;99.90;;;;;;5016399;28;20022;-85
2022/06/03 14:34:19;;;;;;;7.38;4.53;;;21.10;99.90;;;;;;4997971;28;20034;-85
2022/06/03 14:36:47;;;;;;;5.00;4.05;;;21.00;99.90;;;;;;5014068;28;20024;-85
2022/06/03 14:39:22;;;;;;;8.77;4.20;;;20.90;99.90;;;;;;5014052;28;20026;-86
2022/06/03 14:41:53;;;;;;;5.47;4.50;;;20.80;99.90;;;;;;5002913;28;20297;-85
2022/06/03 14:44:22;;;;;;;6.85;4.95;;;20.80;99.90;;;;;;4996850;28;20206;-84
2022/06/03 14:46:52;;;;;;;6.63;5.27;;;20.80;99.90;;;;;;5024694;28;20022;-85
2022/06/03 14:49:21;;;;;;;;;;;20.80;99.90;;;;;;5020879;28;20284;-84